sensor_id;sensor_type;location;lat;lon;timestamp;pressure;altitude;pressure_sealevel;temperature;humidity
62103;BME280;48077;48.104;11.702;2023-05-23T00:00:46;95176.03;;;13.62;100.00
62103;BME280;48077;48.104;11.702;2023-05-23T00:07:41;95183.25;;;13.56;100.00
62103;BME280;48077;48.104;11.702;2023-05-23T00:10:04;95179.72;;;13.51;100.00
62103;BME280;48077;48.104;11.702;2023-05-23T00:12:28;95190.19;;;13.52;100.00
62103;BME280;48077;48.104;11.702;2023-05-23T00:14:51;95178.63;;;13.47;100.00
62103;BME280;48077;48.104;11.702;2023-05-23T00:17:15;95188.00;;;13.44;100.00
62103;BME280;48077;48.104;11.702;2023-05-23T00:19:39;95193.06;;;13.46;100.00
62103;BME280;48077;48.104;11.702;2023-05-23T00:22:03;95190.38;;;13.41;100.00
62103;BME280;48077;48.104;11.702;2023-05-23T00:24:27;95198.41;;;13.41;100.00
62103;BME280;48077;48.104;11.702;2023-05-23T00:26:51;95192.81;;;13.42;100.00
62103;BME280;48077;48.104;11.702;2023-05-23T00:29:14;95194.69;;;13.42;100.00
62103;BME280;48077;48.104;11.702;2023-05-23T00:31:38;95182.00;;;13.32;100.00
62103;BME280;48077;48.104;11.702;2023-05-23T00:34:02;95190.06;;;13.37;100.00
62103;BME280;48077;48.104;11.702;2023-05-23T00:36:25;95197.34;;;13.42;100.00
62103;BME280;48077;48.104;11.702;2023-05-23T00:38:48;95187.69;;;13.41;100.00
62103;BME280;48077;48.104;11.702;2023-05-23T00:41:12;95192.59;;;13.54;100.00
62103;BME280;48077;48.104;11.702;2023-05-23T00:43:35;95197.94;;;13.54;100.00
62103;BME280;48077;48.104;11.702;2023-05-23T00:45:59;95186.97;;;13.55;100.00
62103;BME280;48077;48.104;11.702;2023-05-23T00:48:24;95200.50;;;13.71;100.00
62103;BME280;48077;48.104;11.702;2023-05-23T00:50:48;95191.94;;;13.79;100.00
62103;BME280;48077;48.104;11.702;2023-05-23T00:53:12;95180.41;;;13.73;100.00
62103;BME280;48077;48.104;11.702;2023-05-23T00:55:35;95197.63;;;13.88;100.00
62103;BME280;48077;48.104;11.702;2023-05-23T00:57:59;95195.75;;;13.93;100.00
62103;BME280;48077;48.104;11.702;2023-05-23T01:00:24;95193.63;;;13.90;100.00
62103;BME280;48077;48.104;11.702;2023-05-23T01:02:48;95203.59;;;14.05;100.00
62103;BME280;48077;48.104;11.702;2023-05-23T01:05:15;95203.09;;;14.08;100.00
62103;BME280;48077;48.104;11.702;2023-05-23T01:07:39;95199.88;;;14.11;100.00
62103;BME280;48077;48.104;11.702;2023-05-23T01:10:03;95200.41;;;14.13;100.00
62103;BME280;48077;48.104;11.702;2023-05-23T01:15:27;95193.19;;;14.14;100.00
62103;BME280;48077;48.104;11.702;2023-05-23T01:18:01;95191.28;;;14.14;100.00
62103;BME280;48077;48.104;11.702;2023-05-23T01:20:33;95196.19;;;14.28;100.00
62103;BME280;48077;48.104;11.702;2023-05-23T01:22:59;95202.63;;;14.32;100.00
62103;BME280;48077;48.104;11.702;2023-05-23T01:25:36;95208.81;;;14.32;100.00
62103;BME280;48077;48.104;11.702;2023-05-23T01:28:04;95193.47;;;14.23;100.00
62103;BME280;48077;48.104;11.702;2023-05-23T01:30:38;95214.97;;;14.28;100.00
62103;BME280;48077;48.104;11.702;2023-05-23T01:33:03;95192.94;;;14.21;100.00
62103;BME280;48077;48.104;11.702;2023-05-23T01:35:27;95213.34;;;14.27;100.00
62103;BME280;48077;48.104;11.702;2023-05-23T01:37:51;95209.84;;;14.26;100.00
62103;BME280;48077;48.104;11.702;2023-05-23T01:40:15;95204.50;;;14.26;100.00
62103;BME280;48077;48.104;11.702;2023-05-23T01:42:38;95212.28;;;14.28;100.00
62103;BME280;48077;48.104;11.702;2023-05-23T01:45:02;95207.72;;;14.23;100.00
62103;BME280;48077;48.104;11.702;2023-05-23T01:47:26;95217.66;;;14.28;100.00
62103;BME280;48077;48.104;11.702;2023-05-23T01:49:50;95212.28;;;14.28;100.00
62103;BME280;48077;48.104;11.702;2023-05-23T01:52:15;95220.06;;;14.29;100.00
62103;BME280;48077;48.104;11.702;2023-05-23T01:54:38;95214.97;;;14.28;100.00
62103;BME280;48077;48.104;11.702;2023-05-23T01:57:04;95215.47;;;14.25;100.00
62103;BME280;48077;48.104;11.702;2023-05-23T01:59:28;95226.50;;;14.28;100.00
62103;BME280;48077;48.104;11.702;2023-05-23T02:01:51;95219.53;;;14.32;100.00
62103;BME280;48077;48.104;11.702;2023-05-23T02:04:15;95210.16;;;14.30;100.00
62103;BME280;48077;48.104;11.702;2023-05-23T02:06:38;95229.22;;;14.38;100.00
62103;BME280;48077;48.104;11.702;2023-05-23T02:09:02;95228.97;;;14.40;100.00
62103;BME280;48077;48.104;11.702;2023-05-23T02:11:26;95226.78;;;14.37;100.00
62103;BME280;48077;48.104;11.702;2023-05-23T02:13:49;95225.75;;;14.38;100.00
62103;BME280;48077;48.104;11.702;2023-05-23T02:16:13;95232.19;;;14.47;100.00
62103;BME280;48077;48.104;11.702;2023-05-23T02:18:39;95213.13;;;14.33;100.00
62103;BME280;48077;48.104;11.702;2023-05-23T02:21:04;95245.59;;;14.42;100.00
62103;BME280;48077;48.104;11.702;2023-05-23T02:23:27;95233.25;;;14.41;100.00
62103;BME280;48077;48.104;11.702;2023-05-23T02:25:50;95237.00;;;14.40;100.00
62103;BME280;48077;48.104;11.702;2023-05-23T02:28:14;95244.53;;;14.38;100.00
62103;BME280;48077;48.104;11.702;2023-05-23T02:30:37;95230.28;;;14.32;100.00
62103;BME280;48077;48.104;11.702;2023-05-23T02:33:04;95243.72;;;14.37;100.00
62103;BME280;48077;48.104;11.702;2023-05-23T02:35:28;95229.19;;;14.28;100.00
62103;BME280;48077;48.104;11.702;2023-05-23T02:37:51;95242.63;;;14.33;100.00
62103;BME280;48077;48.104;11.702;2023-05-23T02:40:15;95228.88;;;14.25;100.00
62103;BME280;48077;48.104;11.702;2023-05-23T02:42:38;95239.66;;;14.30;100.00
62103;BME280;48077;48.104;11.702;2023-05-23T02:45:01;95247.94;;;14.28;100.00
62103;BME280;48077;48.104;11.702;2023-05-23T02:47:25;95253.31;;;14.28;100.00
62103;BME280;48077;48.104;11.702;2023-05-23T02:49:48;95260.28;;;14.24;100.00
62103;BME280;48077;48.104;11.702;2023-05-23T02:52:12;95256.53;;;14.25;100.00
62103;BME280;48077;48.104;11.702;2023-05-23T02:54:35;95268.56;;;14.23;100.00
62103;BME280;48077;48.104;11.702;2023-05-23T02:56:59;95266.44;;;14.20;100.00
62103;BME280;48077;48.104;11.702;2023-05-23T02:59:23;95254.06;;;14.13;100.00
62103;BME280;48077;48.104;11.702;2023-05-23T03:01:48;95253.75;;;14.10;100.00
62103;BME280;48077;48.104;11.702;2023-05-23T03:04:14;95246.50;;;14.05;100.00
62103;BME280;48077;48.104;11.702;2023-05-23T03:06:38;95263.69;;;14.09;100.00
62103;BME280;48077;48.104;11.702;2023-05-23T03:09:02;95244.88;;;13.99;100.00
62103;BME280;48077;48.104;11.702;2023-05-23T03:11:25;95240.59;;;13.98;100.00
62103;BME280;48077;48.104;11.702;2023-05-23T03:13:49;95249.97;;;14.01;100.00
62103;BME280;48077;48.104;11.702;2023-05-23T03:16:12;95247.53;;;13.94;100.00
62103;BME280;48077;48.104;11.702;2023-05-23T03:18:36;95248.28;;;13.89;100.00
62103;BME280;48077;48.104;11.702;2023-05-23T03:20:59;95253.09;;;13.87;100.00
62103;BME280;48077;48.104;11.702;2023-05-23T03:23:22;95250.94;;;13.84;100.00
62103;BME280;48077;48.104;11.702;2023-05-23T03:25:46;95251.19;;;13.83;100.00
62103;BME280;48077;48.104;11.702;2023-05-23T03:28:09;95254.97;;;13.82;100.00
62103;BME280;48077;48.104;11.702;2023-05-23T03:30:34;95241.25;;;13.78;100.00
62103;BME280;48077;48.104;11.702;2023-05-23T03:32:58;95247.47;;;13.84;100.00
62103;BME280;48077;48.104;11.702;2023-05-23T03:35:21;95248.53;;;13.83;100.00
62103;BME280;48077;48.104;11.702;2023-05-23T03:37:45;95260.03;;;13.83;100.00
62103;BME280;48077;48.104;11.702;2023-05-23T03:40:08;95250.94;;;13.84;100.00
62103;BME280;48077;48.104;11.702;2023-05-23T03:42:32;95240.16;;;13.69;100.00
62103;BME280;48077;48.104;11.702;2023-05-23T03:44:55;95257.34;;;13.78;100.00
62103;BME280;48077;48.104;11.702;2023-05-23T03:47:18;95263.22;;;13.75;100.00
62103;BME280;48077;48.104;11.702;2023-05-23T03:49:42;95262.69;;;13.73;100.00
62103;BME280;48077;48.104;11.702;2023-05-23T03:52:07;95266.16;;;13.73;100.00
62103;BME280;48077;48.104;11.702;2023-05-23T03:54:30;95266.47;;;13.77;100.00
62103;BME280;48077;48.104;11.702;2023-05-23T03:56:53;95245.53;;;13.74;100.00
62103;BME280;48077;48.104;11.702;2023-05-23T03:59:17;95262.22;;;13.86;100.00
62103;BME280;48077;48.104;11.702;2023-05-23T04:01:40;95263.28;;;13.85;100.00
62103;BME280;48077;48.104;11.702;2023-05-23T04:04:04;95270.50;;;13.85;100.00
62103;BME280;48077;48.104;11.702;2023-05-23T04:06:27;95262.94;;;13.76;100.00
62103;BME280;48077;48.104;11.702;2023-05-23T04:08:53;95273.75;;;13.87;100.00
62103;BME280;48077;48.104;11.702;2023-05-23T04:11:16;95274.06;;;13.95;100.00
62103;BME280;48077;48.104;11.702;2023-05-23T04:13:39;95272.22;;;14.01;100.00
62103;BME280;48077;48.104;11.702;2023-05-23T04:16:05;95276.81;;;14.06;100.00
62103;BME280;48077;48.104;11.702;2023-05-23T04:18:28;95281.13;;;14.07;100.00
62103;BME280;48077;48.104;11.702;2023-05-23T04:20:52;95280.31;;;14.06;100.00
62103;BME280;48077;48.104;11.702;2023-05-23T04:23:16;95263.63;;;13.99;100.00
62103;BME280;48077;48.104;11.702;2023-05-23T04:25:39;95281.94;;;14.12;100.00
62103;BME280;48077;48.104;11.702;2023-05-23T04:28:03;95286.78;;;14.15;100.00
62103;BME280;48077;48.104;11.702;2023-05-23T04:30:27;95282.22;;;14.11;100.00
62103;BME280;48077;48.104;11.702;2023-05-23T04:32:52;95301.84;;;14.22;100.00
62103;BME280;48077;48.104;11.702;2023-05-23T04:35:16;95298.09;;;14.23;100.00
62103;BME280;48077;48.104;11.702;2023-05-23T04:37:39;95306.97;;;14.23;100.00
62103;BME280;48077;48.104;11.702;2023-05-23T04:40:05;95296.72;;;14.20;100.00
62103;BME280;48077;48.104;11.702;2023-05-23T04:42:29;95318.50;;;14.29;100.00
62103;BME280;48077;48.104;11.702;2023-05-23T04:44:53;95305.06;;;14.24;100.00
62103;BME280;48077;48.104;11.702;2023-05-23T04:47:19;95307.22;;;14.27;100.00
62103;BME280;48077;48.104;11.702;2023-05-23T04:49:42;95257.78;;;14.02;100.00
62103;BME280;48077;48.104;11.702;2023-05-23T04:52:06;95292.22;;;14.26;100.00
62103;BME280;48077;48.104;11.702;2023-05-23T04:54:29;95312.44;;;14.44;100.00
62103;BME280;48077;48.104;11.702;2023-05-23T04:56:53;95306.78;;;14.45;100.00
62103;BME280;48077;48.104;11.702;2023-05-23T04:59:16;95305.75;;;14.51;100.00
62103;BME280;48077;48.104;11.702;2023-05-23T05:01:40;95289.09;;;14.49;100.00
62103;BME280;48077;48.104;11.702;2023-05-23T05:04:03;95300.69;;;14.60;100.00
62103;BME280;48077;48.104;11.702;2023-05-23T05:06:26;95284.28;;;14.51;100.00
62103;BME280;48077;48.104;11.702;2023-05-23T05:08:50;95296.66;;;14.57;100.00
62103;BME280;48077;48.104;11.702;2023-05-23T05:11:14;95296.41;;;14.59;100.00
62103;BME280;48077;48.104;11.702;2023-05-23T05:13:38;95295.34;;;14.60;100.00
62103;BME280;48077;48.104;11.702;2023-05-23T05:16:01;95305.06;;;14.71;100.00
62103;BME280;48077;48.104;11.702;2023-05-23T05:18:25;95305.06;;;14.71;100.00
62103;BME280;48077;48.104;11.702;2023-05-23T05:20:49;95314.75;;;14.77;100.00
62103;BME280;48077;48.104;11.702;2023-05-23T05:23:12;95316.88;;;14.75;100.00
62103;BME280;48077;48.104;11.702;2023-05-23T05:25:36;95302.91;;;14.73;100.00
62103;BME280;48077;48.104;11.702;2023-05-23T05:28:01;95308.56;;;14.82;100.00
62103;BME280;48077;48.104;11.702;2023-05-23T05:30:31;95307.53;;;14.88;100.00
62103;BME280;48077;48.104;11.702;2023-05-23T05:32:57;95318.56;;;14.92;100.00
62103;BME280;48077;48.104;11.702;2023-05-23T05:35:21;95314.25;;;14.96;100.00
62103;BME280;48077;48.104;11.702;2023-05-23T05:37:44;95314.25;;;14.96;100.00
62103;BME280;48077;48.104;11.702;2023-05-23T05:40:08;95307.81;;;14.97;100.00
62103;BME280;48077;48.104;11.702;2023-05-23T05:42:32;95301.09;;;14.94;100.00
62103;BME280;48077;48.104;11.702;2023-05-23T05:44:55;95300.28;;;14.99;100.00
62103;BME280;48077;48.104;11.702;2023-05-23T05:47:18;95298.41;;;15.00;100.00
62103;BME280;48077;48.104;11.702;2023-05-23T05:49:42;95307.03;;;15.07;100.00
62103;BME280;48077;48.104;11.702;2023-05-23T05:52:06;95284.19;;;14.99;100.00
62103;BME280;48077;48.104;11.702;2023-05-23T05:54:30;95300.31;;;15.14;100.00
62103;BME280;48077;48.104;11.702;2023-05-23T05:56:54;95287.97;;;15.13;100.00
62103;BME280;48077;48.104;11.702;2023-05-23T05:59:17;95300.09;;;15.21;100.00
62103;BME280;48077;48.104;11.702;2023-05-23T06:01:40;95305.72;;;15.30;100.00
62103;BME280;48077;48.104;11.702;2023-05-23T06:04:04;95302.50;;;15.28;100.00
62103;BME280;48077;48.104;11.702;2023-05-23T06:06:27;95317.56;;;15.34;100.00
62103;BME280;48077;48.104;11.702;2023-05-23T06:08:50;95317.00;;;15.37;100.00
62103;BME280;48077;48.104;11.702;2023-05-23T06:11:14;95315.41;;;15.41;100.00
62103;BME280;48077;48.104;11.702;2023-05-23T06:13:38;95324.28;;;15.47;100.00
62103;BME280;48077;48.104;11.702;2023-05-23T06:16:01;95325.34;;;15.56;100.00
62103;BME280;48077;48.104;11.702;2023-05-23T06:18:24;95323.50;;;15.67;100.00
62103;BME280;48077;48.104;11.702;2023-05-23T06:20:48;95307.09;;;15.68;100.00
62103;BME280;48077;48.104;11.702;2023-05-23T06:23:11;95307.66;;;15.75;100.00
62103;BME280;48077;48.104;11.702;2023-05-23T06:25:36;95329.41;;;15.89;100.00
62103;BME280;48077;48.104;11.702;2023-05-23T06:27:59;95326.47;;;16.01;100.00
62103;BME280;48077;48.104;11.702;2023-05-23T06:30:23;95324.56;;;16.17;100.00
62103;BME280;48077;48.104;11.702;2023-05-23T06:32:46;95324.25;;;16.29;99.64
62103;BME280;48077;48.104;11.702;2023-05-23T06:35:10;95325.31;;;16.43;99.15
62103;BME280;48077;48.104;11.702;2023-05-23T06:37:33;95313.44;;;16.54;99.38
62103;BME280;48077;48.104;11.702;2023-05-23T06:39:57;95335.19;;;16.73;98.26
62103;BME280;48077;48.104;11.702;2023-05-23T06:42:20;95328.69;;;16.74;96.83
62103;BME280;48077;48.104;11.702;2023-05-23T06:44:43;95319.25;;;16.77;96.96
62103;BME280;48077;48.104;11.702;2023-05-23T06:47:07;95324.41;;;16.84;96.69
62103;BME280;48077;48.104;11.702;2023-05-23T06:49:30;95323.56;;;16.88;95.55
62103;BME280;48077;48.104;11.702;2023-05-23T06:51:54;95324.84;;;17.01;93.93
62103;BME280;48077;48.104;11.702;2023-05-23T06:54:18;95329.38;;;17.06;94.47
62103;BME280;48077;48.104;11.702;2023-05-23T06:56:41;95331.78;;;17.12;92.91
62103;BME280;48077;48.104;11.702;2023-05-23T06:59:04;95338.00;;;17.13;91.38
62103;BME280;48077;48.104;11.702;2023-05-23T07:01:28;95335.81;;;17.15;91.63
62103;BME280;48077;48.104;11.702;2023-05-23T07:03:51;95351.91;;;17.30;92.07
62103;BME280;48077;48.104;11.702;2023-05-23T07:06:14;95347.56;;;17.34;90.63
62103;BME280;48077;48.104;11.702;2023-05-23T07:08:38;95351.78;;;17.46;91.94
62103;BME280;48077;48.104;11.702;2023-05-23T07:11:02;95340.41;;;17.59;90.55
62103;BME280;48077;48.104;11.702;2023-05-23T07:13:25;95340.31;;;17.69;89.33
62103;BME280;48077;48.104;11.702;2023-05-23T07:15:48;95339.72;;;17.77;88.34
62103;BME280;48077;48.104;11.702;2023-05-23T07:18:12;95338.44;;;17.70;88.25
62103;BME280;48077;48.104;11.702;2023-05-23T07:20:35;95340.13;;;17.60;89.47
62103;BME280;48077;48.104;11.702;2023-05-23T07:22:59;95347.66;;;17.64;89.97
62103;BME280;48077;48.104;11.702;2023-05-23T07:25:22;95353.63;;;17.60;89.98
62103;BME280;48077;48.104;11.702;2023-05-23T07:27:46;95341.78;;;17.56;90.31
62103;BME280;48077;48.104;11.702;2023-05-23T07:30:09;95351.47;;;17.57;90.04
62103;BME280;48077;48.104;11.702;2023-05-23T07:32:35;95351.66;;;17.66;89.83
62103;BME280;48077;48.104;11.702;2023-05-23T07:34:58;95358.09;;;17.70;90.06
62103;BME280;48077;48.104;11.702;2023-05-23T07:37:21;95355.94;;;17.72;88.96
62103;BME280;48077;48.104;11.702;2023-05-23T07:39:45;95353.16;;;17.88;89.30
62103;BME280;48077;48.104;11.702;2023-05-23T07:42:08;95341.56;;;17.82;88.54
62103;BME280;48077;48.104;11.702;2023-05-23T07:44:32;95354.00;;;17.83;89.24
62103;BME280;48077;48.104;11.702;2023-05-23T07:46:55;95353.72;;;17.85;89.36
62103;BME280;48077;48.104;11.702;2023-05-23T07:49:19;95354.81;;;17.84;89.28
62103;BME280;48077;48.104;11.702;2023-05-23T07:51:42;95362.91;;;17.84;89.37
62103;BME280;48077;48.104;11.702;2023-05-23T07:54:05;95351.03;;;17.85;89.01
62103;BME280;48077;48.104;11.702;2023-05-23T07:56:29;95355.53;;;17.94;88.63
62103;BME280;48077;48.104;11.702;2023-05-23T07:58:53;95354.97;;;17.97;87.73
62103;BME280;48077;48.104;11.702;2023-05-23T08:01:18;95363.03;;;18.03;87.88
62103;BME280;48077;48.104;11.702;2023-05-23T08:03:42;95354.94;;;18.03;87.53
62103;BME280;48077;48.104;11.702;2023-05-23T08:06:05;95361.56;;;18.15;87.33
62103;BME280;48077;48.104;11.702;2023-05-23T08:08:29;95359.19;;;18.09;85.87
62103;BME280;48077;48.104;11.702;2023-05-23T08:10:52;95363.47;;;18.15;86.60
62103;BME280;48077;48.104;11.702;2023-05-23T08:13:16;95363.47;;;18.15;87.23
62103;BME280;48077;48.104;11.702;2023-05-23T08:15:40;95364.25;;;18.15;87.23
62103;BME280;48077;48.104;11.702;2023-05-23T08:18:03;95361.28;;;18.17;86.78
62103;BME280;48077;48.104;11.702;2023-05-23T08:20:27;95363.13;;;18.22;86.57
62103;BME280;48077;48.104;11.702;2023-05-23T08:22:54;95376.09;;;18.19;85.61
62103;BME280;48077;48.104;11.702;2023-05-23T08:25:20;95372.38;;;18.10;85.24
62103;BME280;48077;48.104;11.702;2023-05-23T08:27:43;95369.91;;;18.19;86.24
62103;BME280;48077;48.104;11.702;2023-05-23T08:30:07;95378.19;;;18.28;84.80
62103;BME280;48077;48.104;11.702;2023-05-23T08:32:31;95371.94;;;18.32;84.90
62103;BME280;48077;48.104;11.702;2023-05-23T08:34:55;95375.91;;;18.40;85.35
62103;BME280;48077;48.104;11.702;2023-05-23T08:37:20;95364.28;;;18.39;84.57
62103;BME280;48077;48.104;11.702;2023-05-23T08:39:44;95371.56;;;18.44;83.93
62103;BME280;48077;48.104;11.702;2023-05-23T08:42:07;95363.03;;;18.32;84.38
62103;BME280;48077;48.104;11.702;2023-05-23T08:44:30;95377.09;;;18.29;84.33
62103;BME280;48077;48.104;11.702;2023-05-23T08:46:57;95383.88;;;18.26;84.62
62103;BME280;48077;48.104;11.702;2023-05-23T08:49:24;95371.50;;;18.20;84.95
62103;BME280;48077;48.104;11.702;2023-05-23T08:51:51;95387.88;;;18.29;85.71
62103;BME280;48077;48.104;11.702;2023-05-23T08:54:16;95394.06;;;18.34;85.69
62103;BME280;48077;48.104;11.702;2023-05-23T08:56:41;95393.97;;;18.45;85.20
62103;BME280;48077;48.104;11.702;2023-05-23T08:59:07;95383.16;;;18.45;85.26
62103;BME280;48077;48.104;11.702;2023-05-23T09:01:31;95393.63;;;18.51;84.59
62103;BME280;48077;48.104;11.702;2023-05-23T09:03:56;95377.47;;;18.46;84.03
62103;BME280;48077;48.104;11.702;2023-05-23T09:06:22;95390.75;;;18.43;82.65
62103;BME280;48077;48.104;11.702;2023-05-23T09:08:46;95378.38;;;18.36;83.85
62103;BME280;48077;48.104;11.702;2023-05-23T09:11:09;95386.19;;;18.38;84.00
62103;BME280;48077;48.104;11.702;2023-05-23T09:13:35;95388.66;;;18.34;83.15
62103;BME280;48077;48.104;11.702;2023-05-23T09:18:27;95393.63;;;18.51;82.99
62103;BME280;48077;48.104;11.702;2023-05-23T09:20:55;95393.75;;;18.65;82.96
62103;BME280;48077;48.104;11.702;2023-05-23T09:23:18;95386.97;;;18.68;81.70
62103;BME280;48077;48.104;11.702;2023-05-23T09:25:46;95408.75;;;18.82;82.15
62103;BME280;48077;48.104;11.702;2023-05-23T09:28:09;95406.66;;;18.97;81.93
62103;BME280;48077;48.104;11.702;2023-05-23T09:30:33;95408.91;;;18.90;79.95
62103;BME280;48077;48.104;11.702;2023-05-23T09:32:57;95404.41;;;18.80;79.99
62103;BME280;48077;48.104;11.702;2023-05-23T09:35:22;95407.91;;;18.81;81.45
62103;BME280;48077;48.104;11.702;2023-05-23T09:37:45;95395.31;;;18.71;81.25
62103;BME280;48077;48.104;11.702;2023-05-23T09:40:11;95401.78;;;18.70;81.03
62103;BME280;48077;48.104;11.702;2023-05-23T09:42:42;95393.06;;;18.84;81.04
62103;BME280;48077;48.104;11.702;2023-05-23T09:45:06;95391.19;;;19.03;80.04
62103;BME280;48077;48.104;11.702;2023-05-23T09:47:29;95392.91;;;19.18;79.87
62103;BME280;48077;48.104;11.702;2023-05-23T09:49:53;95399.81;;;19.29;78.42
62103;BME280;48077;48.104;11.702;2023-05-23T09:52:16;95396.28;;;19.29;78.11
62103;BME280;48077;48.104;11.702;2023-05-23T09:54:42;95403.84;;;19.32;79.29
62103;BME280;48077;48.104;11.702;2023-05-23T09:57:09;95401.84;;;19.37;78.71
62103;BME280;48077;48.104;11.702;2023-05-23T09:59:33;95403.16;;;19.21;78.66
62103;BME280;48077;48.104;11.702;2023-05-23T10:01:59;95398.72;;;19.06;79.58
62103;BME280;48077;48.104;11.702;2023-05-23T10:04:24;95408.56;;;18.97;80.54
62103;BME280;48077;48.104;11.702;2023-05-23T10:06:53;95405.59;;;18.98;79.05
62103;BME280;48077;48.104;11.702;2023-05-23T10:09:20;95407.41;;;19.03;79.71
62103;BME280;48077;48.104;11.702;2023-05-23T10:14:31;95396.25;;;19.10;79.40
62103;BME280;48077;48.104;11.702;2023-05-23T10:17:07;95387.34;;;19.09;78.63
62103;BME280;48077;48.104;11.702;2023-05-23T10:19:48;95386.31;;;19.05;78.34
62103;BME280;48077;48.104;11.702;2023-05-23T10:22:14;95383.84;;;19.09;78.57
62103;BME280;48077;48.104;11.702;2023-05-23T10:24:39;95379.22;;;19.09;79.15
62103;BME280;48077;48.104;11.702;2023-05-23T10:27:02;95395.06;;;19.21;77.20
62103;BME280;48077;48.104;11.702;2023-05-23T10:29:26;95381.59;;;19.16;77.85
62103;BME280;48077;48.104;11.702;2023-05-23T10:31:51;95392.50;;;19.06;77.20
62103;BME280;48077;48.104;11.702;2023-05-23T10:37:10;95387.38;;;19.04;78.71
62103;BME280;48077;48.104;11.702;2023-05-23T10:39:45;95387.69;;;19.03;79.36
62103;BME280;48077;48.104;11.702;2023-05-23T10:42:16;95387.09;;;19.49;78.90
62103;BME280;48077;48.104;11.702;2023-05-23T10:44:41;95390.59;;;19.73;76.56
62103;BME280;48077;48.104;11.702;2023-05-23T10:47:05;95376.16;;;19.78;76.41
62103;BME280;48077;48.104;11.702;2023-05-23T10:49:46;95382.47;;;19.73;74.63
62103;BME280;48077;48.104;11.702;2023-05-23T10:52:15;95387.38;;;19.66;73.90
62103;BME280;48077;48.104;11.702;2023-05-23T10:57:10;95380.91;;;19.67;74.81
62103;BME280;48077;48.104;11.702;2023-05-23T10:59:39;95368.16;;;19.68;74.83
62103;BME280;48077;48.104;11.702;2023-05-23T11:02:07;95395.25;;;19.87;74.51
62103;BME280;48077;48.104;11.702;2023-05-23T11:04:34;95379.66;;;19.78;75.20
62103;BME280;48077;48.104;11.702;2023-05-23T11:06:58;95396.03;;;19.68;74.87
62103;BME280;48077;48.104;11.702;2023-05-23T11:09:21;95388.94;;;19.53;75.00
62103;BME280;48077;48.104;11.702;2023-05-23T11:14:15;95382.91;;;19.37;75.65
62103;BME280;48077;48.104;11.702;2023-05-23T11:16:40;95385.19;;;19.30;75.65
62103;BME280;48077;48.104;11.702;2023-05-23T11:21:58;95370.22;;;19.57;75.18
62103;BME280;48077;48.104;11.702;2023-05-23T11:24:22;95371.69;;;19.87;76.85
62103;BME280;48077;48.104;11.702;2023-05-23T11:26:57;95368.03;;;20.30;74.08
62103;BME280;48077;48.104;11.702;2023-05-23T11:29:29;95358.56;;;20.60;69.10
62103;BME280;48077;48.104;11.702;2023-05-23T11:31:53;95350.84;;;20.95;68.40
62103;BME280;48077;48.104;11.702;2023-05-23T11:34:17;95345.47;;;21.45;69.85
62103;BME280;48077;48.104;11.702;2023-05-23T11:36:40;95352.25;;;21.70;65.73
62103;BME280;48077;48.104;11.702;2023-05-23T11:39:04;95343.53;;;21.96;64.30
62103;BME280;48077;48.104;11.702;2023-05-23T11:41:27;95328.06;;;22.05;62.09
62103;BME280;48077;48.104;11.702;2023-05-23T11:43:51;95345.41;;;22.40;63.55
62103;BME280;48077;48.104;11.702;2023-05-23T11:46:14;95339.53;;;22.47;61.16
62103;BME280;48077;48.104;11.702;2023-05-23T11:48:43;95322.94;;;22.57;58.78
62103;BME280;48077;48.104;11.702;2023-05-23T11:51:07;95346.78;;;23.00;57.59
62103;BME280;48077;48.104;11.702;2023-05-23T11:53:30;95326.34;;;23.12;55.42
62103;BME280;48077;48.104;11.702;2023-05-23T11:55:55;95338.72;;;23.35;55.05
62103;BME280;48077;48.104;11.702;2023-05-23T11:58:21;95345.78;;;22.88;55.93
62103;BME280;48077;48.104;11.702;2023-05-23T12:00:45;95338.72;;;22.78;54.87
62103;BME280;48077;48.104;11.702;2023-05-23T12:03:08;95351.75;;;22.58;55.73
62103;BME280;48077;48.104;11.702;2023-05-23T12:05:32;95348.16;;;22.49;56.25
62103;BME280;48077;48.104;11.702;2023-05-23T12:07:55;95351.13;;;22.70;57.13
62103;BME280;48077;48.104;11.702;2023-05-23T12:10:26;95345.22;;;22.37;59.39
62103;BME280;48077;48.104;11.702;2023-05-23T12:12:50;95345.72;;;22.39;58.57
62103;BME280;48077;48.104;11.702;2023-05-23T12:15:13;95349.44;;;22.83;57.75
62103;BME280;48077;48.104;11.702;2023-05-23T12:17:44;95347.69;;;22.47;57.79
62103;BME280;48077;48.104;11.702;2023-05-23T12:20:11;95342.84;;;22.13;58.48
62103;BME280;48077;48.104;11.702;2023-05-23T12:22:35;95341.72;;;21.91;59.42
62103;BME280;48077;48.104;11.702;2023-05-23T12:24:58;95347.94;;;21.69;60.11
62103;BME280;48077;48.104;11.702;2023-05-23T12:30:06;95354.78;;;21.89;59.87
62103;BME280;48077;48.104;11.702;2023-05-23T12:32:32;95337.25;;;22.18;59.58
62103;BME280;48077;48.104;11.702;2023-05-23T12:34:57;95343.81;;;22.17;58.92
62103;BME280;48077;48.104;11.702;2023-05-23T12:37:21;95338.63;;;22.07;59.51
62103;BME280;48077;48.104;11.702;2023-05-23T12:39:46;95344.19;;;22.55;60.34
62103;BME280;48077;48.104;11.702;2023-05-23T12:42:09;95346.69;;;22.20;60.47
62103;BME280;48077;48.104;11.702;2023-05-23T12:44:33;95353.94;;;21.80;59.65
62103;BME280;48077;48.104;11.702;2023-05-23T12:46:56;95340.25;;;21.49;59.53
62103;BME280;48077;48.104;11.702;2023-05-23T12:49:20;95336.47;;;22.17;59.10
62103;BME280;48077;48.104;11.702;2023-05-23T12:51:43;95339.16;;;23.11;55.95
62103;BME280;48077;48.104;11.702;2023-05-23T12:54:07;95341.78;;;23.51;51.91
62103;BME280;48077;48.104;11.702;2023-05-23T12:56:31;95347.75;;;22.96;55.93